sensor_id;sensor_type;location;lat;lon;timestamp;P1;durP1;ratioP1;P2;durP2;ratioP2
25111;SDS011;13092;51.996;4.458;2022-10-16T00:01:07;30.17;;;28.27;;
25111;SDS011;13092;51.996;4.458;2022-10-16T00:03:37;30.50;;;28.60;;
25111;SDS011;13092;51.996;4.458;2022-10-16T00:06:05;28.10;;;26.33;;
25111;SDS011;13092;51.996;4.458;2022-10-16T00:08:34;27.35;;;25.65;;
25111;SDS011;13092;51.996;4.458;2022-10-16T00:11:06;28.25;;;26.08;;
25111;SDS011;13092;51.996;4.458;2022-10-16T00:13:37;28.40;;;26.25;;
25111;SDS011;13092;51.996;4.458;2022-10-16T00:16:07;26.88;;;25.27;;
25111;SDS011;13092;51.996;4.458;2022-10-16T00:18:36;28.92;;;26.73;;
25111;SDS011;13092;51.996;4.458;2022-10-16T00:21:05;24.52;;;22.92;;
25111;SDS011;13092;51.996;4.458;2022-10-16T00:23:36;27.20;;;25.42;;
25111;SDS011;13092;51.996;4.458;2022-10-16T00:26:07;26.08;;;24.48;;
25111;SDS011;13092;51.996;4.458;2022-10-16T00:28:37;27.58;;;25.88;;
25111;SDS011;13092;51.996;4.458;2022-10-16T00:31:05;28.67;;;27.00;;
25111;SDS011;13092;51.996;4.458;2022-10-16T00:33:36;29.15;;;27.38;;
25111;SDS011;13092;51.996;4.458;2022-10-16T00:36:06;29.08;;;27.20;;
25111;SDS011;13092;51.996;4.458;2022-10-16T00:38:34;28.38;;;26.67;;
25111;SDS011;13092;51.996;4.458;2022-10-16T00:41:04;30.27;;;28.48;;
25111;SDS011;13092;51.996;4.458;2022-10-16T00:43:35;31.58;;;29.73;;
25111;SDS011;13092;51.996;4.458;2022-10-16T00:46:10;31.67;;;29.67;;
25111;SDS011;13092;51.996;4.458;2022-10-16T00:48:45;33.30;;;31.13;;
25111;SDS011;13092;51.996;4.458;2022-10-16T00:51:17;33.97;;;31.88;;
25111;SDS011;13092;51.996;4.458;2022-10-16T00:53:49;34.80;;;32.60;;
25111;SDS011;13092;51.996;4.458;2022-10-16T00:56:19;36.30;;;34.08;;
25111;SDS011;13092;51.996;4.458;2022-10-16T00:58:47;38.75;;;36.35;;
25111;SDS011;13092;51.996;4.458;2022-10-16T01:01:15;38.05;;;35.65;;
25111;SDS011;13092;51.996;4.458;2022-10-16T01:03:43;40.35;;;37.75;;
25111;SDS011;13092;51.996;4.458;2022-10-16T01:06:18;40.35;;;37.70;;
25111;SDS011;13092;51.996;4.458;2022-10-16T01:11:51;40.70;;;38.15;;
25111;SDS011;13092;51.996;4.458;2022-10-16T01:14:26;42.00;;;39.20;;
25111;SDS011;13092;51.996;4.458;2022-10-16T01:17:00;43.65;;;40.63;;
25111;SDS011;13092;51.996;4.458;2022-10-16T01:19:42;42.88;;;39.97;;
25111;SDS011;13092;51.996;4.458;2022-10-16T01:22:19;41.58;;;38.67;;
25111;SDS011;13092;51.996;4.458;2022-10-16T01:24:53;41.90;;;38.88;;
25111;SDS011;13092;51.996;4.458;2022-10-16T01:27:26;42.20;;;39.38;;
25111;SDS011;13092;51.996;4.458;2022-10-16T01:29:58;42.13;;;39.30;;
25111;SDS011;13092;51.996;4.458;2022-10-16T01:32:33;42.25;;;39.35;;
25111;SDS011;13092;51.996;4.458;2022-10-16T01:35:05;43.35;;;40.15;;
25111;SDS011;13092;51.996;4.458;2022-10-16T01:37:39;43.70;;;40.70;;
25111;SDS011;13092;51.996;4.458;2022-10-16T01:40:13;41.50;;;38.70;;
25111;SDS011;13092;51.996;4.458;2022-10-16T01:42:48;42.60;;;39.53;;
25111;SDS011;13092;51.996;4.458;2022-10-16T01:45:19;41.97;;;39.05;;
25111;SDS011;13092;51.996;4.458;2022-10-16T01:47:49;42.53;;;39.53;;
25111;SDS011;13092;51.996;4.458;2022-10-16T01:50:18;41.88;;;38.88;;
25111;SDS011;13092;51.996;4.458;2022-10-16T01:52:48;41.75;;;38.95;;
25111;SDS011;13092;51.996;4.458;2022-10-16T01:55:20;41.40;;;38.38;;
25111;SDS011;13092;51.996;4.458;2022-10-16T01:57:54;42.55;;;39.55;;
25111;SDS011;13092;51.996;4.458;2022-10-16T02:00:23;40.83;;;38.03;;
25111;SDS011;13092;51.996;4.458;2022-10-16T02:02:53;41.13;;;38.42;;
25111;SDS011;13092;51.996;4.458;2022-10-16T02:05:26;41.53;;;38.63;;
25111;SDS011;13092;51.996;4.458;2022-10-16T02:07:57;41.70;;;38.85;;
25111;SDS011;13092;51.996;4.458;2022-10-16T02:10:30;42.40;;;39.40;;
25111;SDS011;13092;51.996;4.458;2022-10-16T02:13:01;41.70;;;38.70;;
25111;SDS011;13092;51.996;4.458;2022-10-16T02:15:35;41.25;;;38.55;;
25111;SDS011;13092;51.996;4.458;2022-10-16T02:18:03;41.83;;;38.97;;
25111;SDS011;13092;51.996;4.458;2022-10-16T02:20:33;41.58;;;38.78;;
25111;SDS011;13092;51.996;4.458;2022-10-16T02:23:07;41.67;;;38.70;;
25111;SDS011;13092;51.996;4.458;2022-10-16T02:25:42;41.72;;;38.92;;
25111;SDS011;13092;51.996;4.458;2022-10-16T02:28:15;41.30;;;38.30;;
25111;SDS011;13092;51.996;4.458;2022-10-16T02:30:45;40.53;;;37.72;;
25111;SDS011;13092;51.996;4.458;2022-10-16T02:33:17;40.15;;;37.45;;
25111;SDS011;13092;51.996;4.458;2022-10-16T02:35:48;41.67;;;38.75;;
25111;SDS011;13092;51.996;4.458;2022-10-16T02:38:18;40.60;;;37.85;;
25111;SDS011;13092;51.996;4.458;2022-10-16T02:40:47;40.63;;;37.92;;
25111;SDS011;13092;51.996;4.458;2022-10-16T02:43:17;40.47;;;37.80;;
25111;SDS011;13092;51.996;4.458;2022-10-16T02:45:45;42.15;;;39.05;;
25111;SDS011;13092;51.996;4.458;2022-10-16T02:48:13;39.58;;;36.78;;
25111;SDS011;13092;51.996;4.458;2022-10-16T02:50:41;39.88;;;37.17;;
25111;SDS011;13092;51.996;4.458;2022-10-16T02:53:09;40.38;;;37.67;;
25111;SDS011;13092;51.996;4.458;2022-10-16T02:55:37;39.97;;;37.28;;
25111;SDS011;13092;51.996;4.458;2022-10-16T02:58:05;40.13;;;37.33;;
25111;SDS011;13092;51.996;4.458;2022-10-16T03:00:35;39.15;;;36.55;;
25111;SDS011;13092;51.996;4.458;2022-10-16T03:03:03;39.38;;;36.47;;
25111;SDS011;13092;51.996;4.458;2022-10-16T03:05:31;39.20;;;36.38;;
25111;SDS011;13092;51.996;4.458;2022-10-16T03:07:59;38.72;;;35.97;;
25111;SDS011;13092;51.996;4.458;2022-10-16T03:10:27;39.53;;;36.70;;
25111;SDS011;13092;51.996;4.458;2022-10-16T03:12:55;39.42;;;36.55;;
25111;SDS011;13092;51.996;4.458;2022-10-16T03:15:23;39.05;;;36.17;;
25111;SDS011;13092;51.996;4.458;2022-10-16T03:17:53;39.88;;;36.78;;
25111;SDS011;13092;51.996;4.458;2022-10-16T03:20:21;39.65;;;36.88;;
25111;SDS011;13092;51.996;4.458;2022-10-16T03:22:49;39.92;;;36.75;;
25111;SDS011;13092;51.996;4.458;2022-10-16T03:25:17;38.92;;;36.00;;
25111;SDS011;13092;51.996;4.458;2022-10-16T03:27:45;37.80;;;35.28;;
25111;SDS011;13092;51.996;4.458;2022-10-16T03:30:13;39.08;;;36.28;;
25111;SDS011;13092;51.996;4.458;2022-10-16T03:32:43;38.30;;;35.50;;
25111;SDS011;13092;51.996;4.458;2022-10-16T03:35:12;37.90;;;35.30;;
25111;SDS011;13092;51.996;4.458;2022-10-16T03:37:41;37.08;;;34.50;;
25111;SDS011;13092;51.996;4.458;2022-10-16T03:40:09;38.72;;;36.03;;
25111;SDS011;13092;51.996;4.458;2022-10-16T03:42:37;40.13;;;37.22;;
25111;SDS011;13092;51.996;4.458;2022-10-16T03:45:05;38.55;;;35.85;;
25111;SDS011;13092;51.996;4.458;2022-10-16T03:47:34;38.78;;;36.17;;
25111;SDS011;13092;51.996;4.458;2022-10-16T03:50:02;38.65;;;35.83;;
25111;SDS011;13092;51.996;4.458;2022-10-16T03:52:32;39.33;;;36.60;;
25111;SDS011;13092;51.996;4.458;2022-10-16T03:55:00;39.88;;;37.17;;
25111;SDS011;13092;51.996;4.458;2022-10-16T03:57:28;39.92;;;37.03;;
25111;SDS011;13092;51.996;4.458;2022-10-16T03:59:56;40.20;;;37.28;;
25111;SDS011;13092;51.996;4.458;2022-10-16T04:02:27;39.80;;;36.92;;
25111;SDS011;13092;51.996;4.458;2022-10-16T04:04:55;40.15;;;37.35;;
25111;SDS011;13092;51.996;4.458;2022-10-16T04:07:23;40.58;;;37.67;;
25111;SDS011;13092;51.996;4.458;2022-10-16T04:09:53;39.92;;;37.15;;
25111;SDS011;13092;51.996;4.458;2022-10-16T04:12:21;41.10;;;38.00;;
25111;SDS011;13092;51.996;4.458;2022-10-16T04:14:50;41.08;;;38.00;;
25111;SDS011;13092;51.996;4.458;2022-10-16T04:17:18;39.80;;;37.05;;
25111;SDS011;13092;51.996;4.458;2022-10-16T04:19:46;40.33;;;37.42;;
25111;SDS011;13092;51.996;4.458;2022-10-16T04:22:13;39.70;;;37.00;;
25111;SDS011;13092;51.996;4.458;2022-10-16T04:24:41;38.63;;;36.03;;
25111;SDS011;13092;51.996;4.458;2022-10-16T04:27:11;38.67;;;36.08;;
25111;SDS011;13092;51.996;4.458;2022-10-16T04:29:39;39.17;;;36.38;;
25111;SDS011;13092;51.996;4.458;2022-10-16T04:32:07;39.67;;;36.80;;
25111;SDS011;13092;51.996;4.458;2022-10-16T04:34:36;40.20;;;37.30;;
25111;SDS011;13092;51.996;4.458;2022-10-16T04:37:06;40.22;;;37.38;;
25111;SDS011;13092;51.996;4.458;2022-10-16T04:39:34;39.97;;;37.13;;
25111;SDS011;13092;51.996;4.458;2022-10-16T04:42:02;38.33;;;35.47;;
25111;SDS011;13092;51.996;4.458;2022-10-16T04:44:32;39.10;;;36.38;;
25111;SDS011;13092;51.996;4.458;2022-10-16T04:47:00;39.22;;;36.53;;
25111;SDS011;13092;51.996;4.458;2022-10-16T04:49:28;38.92;;;36.22;;
25111;SDS011;13092;51.996;4.458;2022-10-16T04:51:56;38.55;;;35.70;;
25111;SDS011;13092;51.996;4.458;2022-10-16T04:54:25;38.15;;;35.40;;
25111;SDS011;13092;51.996;4.458;2022-10-16T04:56:53;37.85;;;35.17;;
25111;SDS011;13092;51.996;4.458;2022-10-16T04:59:21;37.45;;;34.75;;
25111;SDS011;13092;51.996;4.458;2022-10-16T05:01:53;38.72;;;35.95;;
25111;SDS011;13092;51.996;4.458;2022-10-16T05:04:21;38.10;;;35.40;;
25111;SDS011;13092;51.996;4.458;2022-10-16T05:06:49;38.33;;;35.63;;
25111;SDS011;13092;51.996;4.458;2022-10-16T05:09:17;38.72;;;35.67;;
25111;SDS011;13092;51.996;4.458;2022-10-16T05:11:45;37.75;;;35.08;;
25111;SDS011;13092;51.996;4.458;2022-10-16T05:14:13;38.33;;;35.30;;
25111;SDS011;13092;51.996;4.458;2022-10-16T05:16:41;38.17;;;35.38;;
25111;SDS011;13092;51.996;4.458;2022-10-16T05:19:11;39.38;;;36.28;;
25111;SDS011;13092;51.996;4.458;2022-10-16T05:21:54;38.65;;;35.72;;
25111;SDS011;13092;51.996;4.458;2022-10-16T05:24:22;38.80;;;35.78;;
25111;SDS011;13092;51.996;4.458;2022-10-16T05:26:50;38.22;;;35.42;;
25111;SDS011;13092;51.996;4.458;2022-10-16T05:29:19;36.97;;;33.95;;
25111;SDS011;13092;51.996;4.458;2022-10-16T05:31:49;37.70;;;34.80;;
25111;SDS011;13092;51.996;4.458;2022-10-16T05:34:19;37.75;;;35.03;;
25111;SDS011;13092;51.996;4.458;2022-10-16T05:36:47;37.90;;;35.20;;
25111;SDS011;13092;51.996;4.458;2022-10-16T05:39:16;37.63;;;34.85;;
25111;SDS011;13092;51.996;4.458;2022-10-16T05:41:44;38.30;;;35.28;;
25111;SDS011;13092;51.996;4.458;2022-10-16T05:44:12;37.60;;;34.70;;
25111;SDS011;13092;51.996;4.458;2022-10-16T05:46:42;36.95;;;33.97;;
25111;SDS011;13092;51.996;4.458;2022-10-16T05:49:10;37.03;;;33.60;;
25111;SDS011;13092;51.996;4.458;2022-10-16T05:51:39;36.92;;;34.15;;
25111;SDS011;13092;51.996;4.458;2022-10-16T05:54:08;35.75;;;33.35;;
25111;SDS011;13092;51.996;4.458;2022-10-16T05:56:36;35.47;;;32.65;;
25111;SDS011;13092;51.996;4.458;2022-10-16T05:59:04;35.72;;;32.70;;
25111;SDS011;13092;51.996;4.458;2022-10-16T06:01:32;35.58;;;32.85;;
25111;SDS011;13092;51.996;4.458;2022-10-16T06:04:01;35.25;;;32.50;;
25111;SDS011;13092;51.996;4.458;2022-10-16T06:06:29;36.60;;;33.60;;
25111;SDS011;13092;51.996;4.458;2022-10-16T06:08:59;35.50;;;32.78;;
25111;SDS011;13092;51.996;4.458;2022-10-16T06:11:28;35.33;;;32.63;;
25111;SDS011;13092;51.996;4.458;2022-10-16T06:13:58;35.22;;;32.60;;
25111;SDS011;13092;51.996;4.458;2022-10-16T06:16:28;35.47;;;32.47;;
25111;SDS011;13092;51.996;4.458;2022-10-16T06:18:56;34.33;;;31.90;;
25111;SDS011;13092;51.996;4.458;2022-10-16T06:21:26;35.15;;;32.55;;
25111;SDS011;13092;51.996;4.458;2022-10-16T06:23:55;34.40;;;32.03;;
25111;SDS011;13092;51.996;4.458;2022-10-16T06:26:26;34.40;;;31.92;;
25111;SDS011;13092;51.996;4.458;2022-10-16T06:28:56;34.00;;;31.58;;
25111;SDS011;13092;51.996;4.458;2022-10-16T06:31:26;34.90;;;32.25;;
25111;SDS011;13092;51.996;4.458;2022-10-16T06:33:57;33.72;;;31.33;;
25111;SDS011;13092;51.996;4.458;2022-10-16T06:36:25;33.42;;;31.13;;
25111;SDS011;13092;51.996;4.458;2022-10-16T06:38:54;33.65;;;31.25;;
25111;SDS011;13092;51.996;4.458;2022-10-16T06:41:22;33.70;;;31.50;;
25111;SDS011;13092;51.996;4.458;2022-10-16T06:43:52;33.17;;;30.95;;
25111;SDS011;13092;51.996;4.458;2022-10-16T06:46:21;34.08;;;31.67;;
25111;SDS011;13092;51.996;4.458;2022-10-16T06:48:50;33.80;;;31.42;;
25111;SDS011;13092;51.996;4.458;2022-10-16T06:51:19;35.00;;;32.53;;
25111;SDS011;13092;51.996;4.458;2022-10-16T06:53:49;33.85;;;31.45;;
25111;SDS011;13092;51.996;4.458;2022-10-16T06:56:35;35.03;;;32.28;;
25111;SDS011;13092;51.996;4.458;2022-10-16T06:59:04;33.45;;;31.13;;
25111;SDS011;13092;51.996;4.458;2022-10-16T07:01:32;33.67;;;31.27;;
25111;SDS011;13092;51.996;4.458;2022-10-16T07:04:00;34.63;;;31.73;;
25111;SDS011;13092;51.996;4.458;2022-10-16T07:06:30;34.30;;;31.63;;
25111;SDS011;13092;51.996;4.458;2022-10-16T07:09:01;32.75;;;30.52;;
25111;SDS011;13092;51.996;4.458;2022-10-16T07:11:35;33.78;;;31.38;;
25111;SDS011;13092;51.996;4.458;2022-10-16T07:14:04;34.38;;;31.60;;
25111;SDS011;13092;51.996;4.458;2022-10-16T07:16:37;33.25;;;30.90;;
25111;SDS011;13092;51.996;4.458;2022-10-16T07:19:05;32.97;;;30.67;;
25111;SDS011;13092;51.996;4.458;2022-10-16T07:21:33;34.53;;;31.98;;
25111;SDS011;13092;51.996;4.458;2022-10-16T07:24:03;33.08;;;30.67;;
25111;SDS011;13092;51.996;4.458;2022-10-16T07:26:35;33.08;;;30.65;;
25111;SDS011;13092;51.996;4.458;2022-10-16T07:29:05;32.40;;;30.13;;
25111;SDS011;13092;51.996;4.458;2022-10-16T07:31:34;32.25;;;30.00;;
25111;SDS011;13092;51.996;4.458;2022-10-16T07:34:04;32.40;;;30.10;;
25111;SDS011;13092;51.996;4.458;2022-10-16T07:36:31;32.60;;;30.08;;
25111;SDS011;13092;51.996;4.458;2022-10-16T07:39:00;32.67;;;30.25;;
25111;SDS011;13092;51.996;4.458;2022-10-16T07:41:28;32.63;;;30.00;;
25111;SDS011;13092;51.996;4.458;2022-10-16T07:43:58;31.40;;;29.15;;
25111;SDS011;13092;51.996;4.458;2022-10-16T07:46:27;32.25;;;29.45;;
25111;SDS011;13092;51.996;4.458;2022-10-16T07:48:56;31.70;;;29.25;;
25111;SDS011;13092;51.996;4.458;2022-10-16T07:51:24;31.98;;;29.38;;
25111;SDS011;13092;51.996;4.458;2022-10-16T07:53:53;31.80;;;29.30;;
25111;SDS011;13092;51.996;4.458;2022-10-16T07:56:21;33.25;;;30.65;;
25111;SDS011;13092;51.996;4.458;2022-10-16T07:58:50;31.35;;;29.15;;
25111;SDS011;13092;51.996;4.458;2022-10-16T08:01:19;32.28;;;29.67;;
25111;SDS011;13092;51.996;4.458;2022-10-16T08:03:48;30.92;;;28.50;;
25111;SDS011;13092;51.996;4.458;2022-10-16T08:06:18;31.52;;;28.75;;
25111;SDS011;13092;51.996;4.458;2022-10-16T08:08:53;31.63;;;28.90;;
25111;SDS011;13092;51.996;4.458;2022-10-16T08:11:21;32.63;;;30.05;;
25111;SDS011;13092;51.996;4.458;2022-10-16T08:13:49;32.28;;;29.33;;
25111;SDS011;13092;51.996;4.458;2022-10-16T08:16:17;32.05;;;29.65;;
25111;SDS011;13092;51.996;4.458;2022-10-16T08:18:49;31.20;;;29.00;;
25111;SDS011;13092;51.996;4.458;2022-10-16T08:21:18;31.83;;;29.17;;
25111;SDS011;13092;51.996;4.458;2022-10-16T08:23:49;31.08;;;28.88;;
25111;SDS011;13092;51.996;4.458;2022-10-16T08:26:23;32.33;;;29.92;;
25111;SDS011;13092;51.996;4.458;2022-10-16T08:28:52;31.40;;;29.00;;
25111;SDS011;13092;51.996;4.458;2022-10-16T08:31:22;31.75;;;29.25;;
25111;SDS011;13092;51.996;4.458;2022-10-16T08:33:52;32.08;;;29.52;;
25111;SDS011;13092;51.996;4.458;2022-10-16T08:36:20;32.53;;;29.77;;
25111;SDS011;13092;51.996;4.458;2022-10-16T08:38:49;32.03;;;29.52;;
25111;SDS011;13092;51.996;4.458;2022-10-16T08:41:30;32.45;;;30.05;;
25111;SDS011;13092;51.996;4.458;2022-10-16T08:47:51;32.13;;;29.63;;
25111;SDS011;13092;51.996;4.458;2022-10-16T08:50:26;32.20;;;29.45;;
25111;SDS011;13092;51.996;4.458;2022-10-16T08:52:55;31.67;;;29.15;;
25111;SDS011;13092;51.996;4.458;2022-10-16T08:55:31;32.22;;;29.63;;
25111;SDS011;13092;51.996;4.458;2022-10-16T08:58:09;31.67;;;29.05;;
25111;SDS011;13092;51.996;4.458;2022-10-16T09:00:40;32.80;;;30.00;;
25111;SDS011;13092;51.996;4.458;2022-10-16T09:03:13;31.58;;;29.25;;
25111;SDS011;13092;51.996;4.458;2022-10-16T09:05:52;32.60;;;29.80;;
25111;SDS011;13092;51.996;4.458;2022-10-16T09:08:37;31.38;;;28.77;;
25111;SDS011;13092;51.996;4.458;2022-10-16T09:11:13;30.80;;;28.17;;
25111;SDS011;13092;51.996;4.458;2022-10-16T09:13:50;31.73;;;28.98;;
25111;SDS011;13092;51.996;4.458;2022-10-16T09:16:22;31.70;;;29.02;;
25111;SDS011;13092;51.996;4.458;2022-10-16T09:18:58;31.95;;;29.45;;
25111;SDS011;13092;51.996;4.458;2022-10-16T09:21:33;30.48;;;28.15;;
25111;SDS011;13092;51.996;4.458;2022-10-16T09:24:10;31.25;;;28.67;;
25111;SDS011;13092;51.996;4.458;2022-10-16T09:26:42;31.85;;;29.17;;
25111;SDS011;13092;51.996;4.458;2022-10-16T09:29:11;32.25;;;29.75;;
25111;SDS011;13092;51.996;4.458;2022-10-16T09:31:39;30.13;;;27.45;;
25111;SDS011;13092;51.996;4.458;2022-10-16T09:34:11;30.92;;;28.23;;
25111;SDS011;13092;51.996;4.458;2022-10-16T09:36:48;30.33;;;28.02;;
25111;SDS011;13092;51.996;4.458;2022-10-16T09:39:16;31.38;;;28.65;;
25111;SDS011;13092;51.996;4.458;2022-10-16T09:41:44;31.05;;;28.38;;
25111;SDS011;13092;51.996;4.458;2022-10-16T09:44:16;30.55;;;28.15;;
25111;SDS011;13092;51.996;4.458;2022-10-16T09:46:48;30.63;;;28.05;;
25111;SDS011;13092;51.996;4.458;2022-10-16T09:49:29;32.03;;;29.48;;
25111;SDS011;13092;51.996;4.458;2022-10-16T09:52:04;31.88;;;28.92;;
25111;SDS011;13092;51.996;4.458;2022-10-16T09:54:32;31.83;;;29.20;;
25111;SDS011;13092;51.996;4.458;2022-10-16T09:57:04;32.92;;;29.90;;
25111;SDS011;13092;51.996;4.458;2022-10-16T09:59:33;31.15;;;28.45;;
25111;SDS011;13092;51.996;4.458;2022-10-16T10:02:02;32.25;;;29.35;;
25111;SDS011;13092;51.996;4.458;2022-10-16T10:04:39;38.28;;;30.48;;
25111;SDS011;13092;51.996;4.458;2022-10-16T10:07:16;31.73;;;29.15;;
25111;SDS011;13092;51.996;4.458;2022-10-16T10:09:46;31.42;;;28.90;;
25111;SDS011;13092;51.996;4.458;2022-10-16T10:12:17;30.95;;;28.58;;
25111;SDS011;13092;51.996;4.458;2022-10-16T10:14:52;31.75;;;29.23;;
25111;SDS011;13092;51.996;4.458;2022-10-16T10:17:22;30.23;;;27.67;;
25111;SDS011;13092;51.996;4.458;2022-10-16T10:19:53;33.67;;;31.17;;
25111;SDS011;13092;51.996;4.458;2022-10-16T10:22:26;31.40;;;28.65;;
25111;SDS011;13092;51.996;4.458;2022-10-16T10:24:59;32.03;;;29.30;;
25111;SDS011;13092;51.996;4.458;2022-10-16T10:27:41;30.85;;;28.25;;
25111;SDS011;13092;51.996;4.458;2022-10-16T10:30:19;32.42;;;29.73;;
25111;SDS011;13092;51.996;4.458;2022-10-16T10:33:02;29.80;;;27.02;;
25111;SDS011;13092;51.996;4.458;2022-10-16T10:35:44;30.38;;;28.02;;
25111;SDS011;13092;51.996;4.458;2022-10-16T10:38:20;32.40;;;29.95;;
25111;SDS011;13092;51.996;4.458;2022-10-16T10:41:01;31.50;;;29.10;;
25111;SDS011;13092;51.996;4.458;2022-10-16T10:43:44;29.60;;;27.15;;
25111;SDS011;13092;51.996;4.458;2022-10-16T10:46:27;27.48;;;24.95;;
25111;SDS011;13092;51.996;4.458;2022-10-16T10:49:03;27.52;;;25.08;;
25111;SDS011;13092;51.996;4.458;2022-10-16T10:51:44;29.38;;;26.80;;
25111;SDS011;13092;51.996;4.458;2022-10-16T10:54:24;31.05;;;28.63;;
25111;SDS011;13092;51.996;4.458;2022-10-16T10:56:57;29.70;;;27.50;;
25111;SDS011;13092;51.996;4.458;2022-10-16T11:02:26;30.05;;;27.40;;
25111;SDS011;13092;51.996;4.458;2022-10-16T11:05:14;25.08;;;22.73;;
25111;SDS011;13092;51.996;4.458;2022-10-16T11:08:06;25.05;;;22.77;;
25111;SDS011;13092;51.996;4.458;2022-10-16T11:10:43;24.55;;;22.45;;
25111;SDS011;13092;51.996;4.458;2022-10-16T11:13:17;27.42;;;25.15;;
25111;SDS011;13092;51.996;4.458;2022-10-16T11:15:51;19.30;;;17.38;;
25111;SDS011;13092;51.996;4.458;2022-10-16T11:18:24;18.20;;;10.40;;
25111;SDS011;13092;51.996;4.458;2022-10-16T11:20:56;13.57;;;10.55;;
25111;SDS011;13092;51.996;4.458;2022-10-16T11:23:30;13.30;;;9.88;;
25111;SDS011;13092;51.996;4.458;2022-10-16T11:26:02;16.98;;;14.32;;
25111;SDS011;13092;51.996;4.458;2022-10-16T11:28:36;15.55;;;11.93;;
25111;SDS011;13092;51.996;4.458;2022-10-16T11:31:08;14.70;;;8.23;;
25111;SDS011;13092;51.996;4.458;2022-10-16T11:33:41;14.80;;;8.63;;
25111;SDS011;13092;51.996;4.458;2022-10-16T11:36:15;14.88;;;7.97;;
25111;SDS011;13092;51.996;4.458;2022-10-16T11:38:50;12.68;;;7.18;;
25111;SDS011;13092;51.996;4.458;2022-10-16T11:41:24;12.40;;;7.55;;
25111;SDS011;13092;51.996;4.458;2022-10-16T11:43:59;12.57;;;4.40;;
25111;SDS011;13092;51.996;4.458;2022-10-16T11:46:43;8.70;;;2.42;;
25111;SDS011;13092;51.996;4.458;2022-10-16T11:49:34;9.27;;;2.17;;
25111;SDS011;13092;51.996;4.458;2022-10-16T11:52:06;12.18;;;2.60;;
25111;SDS011;13092;51.996;4.458;2022-10-16T11:54:41;12.85;;;2.78;;
25111;SDS011;13092;51.996;4.458;2022-10-16T11:57:15;12.13;;;2.95;;
25111;SDS011;13092;51.996;4.458;2022-10-16T11:59:48;11.10;;;2.67;;
25111;SDS011;13092;51.996;4.458;2022-10-16T12:02:28;10.63;;;2.58;;
25111;SDS011;13092;51.996;4.458;2022-10-16T12:05:05;13.10;;;2.70;;
25111;SDS011;13092;51.996;4.458;2022-10-16T12:07:46;10.15;;;2.55;;
25111;SDS011;13092;51.996;4.458;2022-10-16T12:10:20;12.68;;;2.60;;
25111;SDS011;13092;51.996;4.458;2022-10-16T12:12:52;13.00;;;2.80;;
25111;SDS011;13092;51.996;4.458;2022-10-16T12:15:24;11.05;;;2.42;;
25111;SDS011;13092;51.996;4.458;2022-10-16T12:18:20;10.25;;;2.53;;
25111;SDS011;13092;51.996;4.458;2022-10-16T12:20:54;12.45;;;2.80;;
25111;SDS011;13092;51.996;4.458;2022-10-16T12:23:26;13.57;;;2.50;;
25111;SDS011;13092;51.996;4.458;2022-10-16T12:25:55;11.98;;;2.60;;
25111;SDS011;13092;51.996;4.458;2022-10-16T12:28:26;13.32;;;2.75;;
25111;SDS011;13092;51.996;4.458;2022-10-16T12:30:56;11.27;;;2.88;;
25111;SDS011;13092;51.996;4.458;2022-10-16T12:33:26;10.68;;;2.30;;
25111;SDS011;13092;51.996;4.458;2022-10-16T12:35:56;12.68;;;2.85;;
25111;SDS011;13092;51.996;4.458;2022-10-16T12:38:27;12.48;;;2.78;;
25111;SDS011;13092;51.996;4.458;2022-10-16T12:41:01;14.30;;;2.85;;
25111;SDS011;13092;51.996;4.458;2022-10-16T12:43:38;10.30;;;2.55;;
25111;SDS011;13092;51.996;4.458;2022-10-16T12:46:22;12.35;;;2.70;;
25111;SDS011;13092;51.996;4.458;2022-10-16T12:48:51;9.57;;;2.38;;
25111;SDS011;13092;51.996;4.458;2022-10-16T12:51:35;10.90;;;2.63;;
25111;SDS011;13092;51.996;4.458;2022-10-16T12:54:04;12.82;;;2.63;;
25111;SDS011;13092;51.996;4.458;2022-10-16T12:56:44;12.15;;;2.40;;
25111;SDS011;13092;51.996;4.458;2022-10-16T12:59:24;11.35;;;2.78;;
25111;SDS011;13092;51.996;4.458;2022-10-16T13:02:06;13.10;;;2.83;;
25111;SDS011;13092;51.996;4.458;2022-10-16T13:05:01;12.00;;;2.75;;
25111;SDS011;13092;51.996;4.458;2022-10-16T13:07:44;11.05;;;2.38;;
25111;SDS011;13092;51.996;4.458;2022-10-16T13:10:21;15.07;;;2.47;;
25111;SDS011;13092;51.996;4.458;2022-10-16T13:13:09;12.10;;;2.50;;
25111;SDS011;13092;51.996;4.458;2022-10-16T13:15:57;10.07;;;2.30;;
25111;SDS011;13092;51.996;4.458;2022-10-16T13:18:36;12.15;;;2.83;;
25111;SDS011;13092;51.996;4.458;2022-10-16T13:21:17;11.18;;;2.63;;
25111;SDS011;13092;51.996;4.458;2022-10-16T13:23:55;16.95;;;2.53;;
25111;SDS011;13092;51.996;4.458;2022-10-16T13:26:31;13.05;;;3.42;;
25111;SDS011;13092;51.996;4.458;2022-10-16T13:29:09;8.73;;;2.58;;
25111;SDS011;13092;51.996;4.458;2022-10-16T13:31:38;11.02;;;2.60;;
25111;SDS011;13092;51.996;4.458;2022-10-16T13:34:10;14.80;;;2.72;;
25111;SDS011;13092;51.996;4.458;2022-10-16T13:36:44;9.25;;;2.25;;
25111;SDS011;13092;51.996;4.458;2022-10-16T13:39:14;13.75;;;3.05;;
25111;SDS011;13092;51.996;4.458;2022-10-16T13:42:00;9.57;;;2.22;;
25111;SDS011;13092;51.996;4.458;2022-10-16T13:44:36;10.82;;;2.75;;
25111;SDS011;13092;51.996;4.458;2022-10-16T13:47:14;12.13;;;2.78;;
25111;SDS011;13092;51.996;4.458;2022-10-16T13:49:44;9.90;;;2.97;;
25111;SDS011;13092;51.996;4.458;2022-10-16T13:52:16;14.18;;;2.92;;
25111;SDS011;13092;51.996;4.458;2022-10-16T13:54:45;12.35;;;2.55;;
25111;SDS011;13092;51.996;4.458;2022-10-16T13:57:14;12.80;;;2.78;;
25111;SDS011;13092;51.996;4.458;2022-10-16T13:59:54;13.00;;;2.65;;
25111;SDS011;13092;51.996;4.458;2022-10-16T14:02:25;10.77;;;2.65;;
25111;SDS011;13092;51.996;4.458;2022-10-16T14:04:56;10.02;;;2.58;;
25111;SDS011;13092;51.996;4.458;2022-10-16T14:07:26;9.75;;;2.72;;
25111;SDS011;13092;51.996;4.458;2022-10-16T14:09:55;12.65;;;3.08;;
25111;SDS011;13092;51.996;4.458;2022-10-16T14:12:27;12.82;;;2.50;;
25111;SDS011;13092;51.996;4.458;2022-10-16T14:14:57;13.93;;;2.80;;
25111;SDS011;13092;51.996;4.458;2022-10-16T14:17:27;10.88;;;2.58;;
25111;SDS011;13092;51.996;4.458;2022-10-16T14:19:57;10.65;;;2.47;;
25111;SDS011;13092;51.996;4.458;2022-10-16T14:22:32;17.95;;;3.60;;
25111;SDS011;13092;51.996;4.458;2022-10-16T14:25:01;12.43;;;2.38;;
25111;SDS011;13092;51.996;4.458;2022-10-16T14:27:30;6.75;;;2.33;;
25111;SDS011;13092;51.996;4.458;2022-10-16T14:30:14;6.43;;;2.25;;
25111;SDS011;13092;51.996;4.458;2022-10-16T14:32:53;11.48;;;2.88;;
25111;SDS011;13092;51.996;4.458;2022-10-16T14:35:23;11.45;;;2.58;;
25111;SDS011;13092;51.996;4.458;2022-10-16T14:37:56;10.98;;;2.47;;
25111;SDS011;13092;51.996;4.458;2022-10-16T14:40:26;11.30;;;2.35;;
25111;SDS011;13092;51.996;4.458;2022-10-16T14:42:56;10.20;;;2.60;;
25111;SDS011;13092;51.996;4.458;2022-10-16T14:45:29;9.15;;;2.33;;
25111;SDS011;13092;51.996;4.458;2022-10-16T14:48:00;13.07;;;2.65;;
25111;SDS011;13092;51.996;4.458;2022-10-16T14:50:31;10.88;;;2.80;;
25111;SDS011;13092;51.996;4.458;2022-10-16T14:52:59;9.98;;;2.65;;
25111;SDS011;13092;51.996;4.458;2022-10-16T14:55:27;14.07;;;2.85;;
25111;SDS011;13092;51.996;4.458;2022-10-16T14:57:55;12.45;;;2.92;;
25111;SDS011;13092;51.996;4.458;2022-10-16T15:00:26;9.30;;;2.60;;
25111;SDS011;13092;51.996;4.458;2022-10-16T15:02:56;13.40;;;2.90;;